sensor_id;sensor_type;location;lat;lon;timestamp;P1;durP1;ratioP1;P2;durP2;ratioP2
75021;SDS011;63583;49.976;20.182;2023-06-14T00:00:40;18.33;;;9.80;;
75021;SDS011;63583;49.976;20.182;2023-06-14T00:03:26;17.50;;;9.15;;
75021;SDS011;63583;49.976;20.182;2023-06-14T00:05:52;18.02;;;9.68;;
75021;SDS011;63583;49.976;20.182;2023-06-14T00:08:17;19.75;;;10.10;;
75021;SDS011;63583;49.976;20.182;2023-06-14T00:10:44;18.17;;;9.50;;
75021;SDS011;63583;49.976;20.182;2023-06-14T00:13:10;17.75;;;8.98;;
75021;SDS011;63583;49.976;20.182;2023-06-14T00:15:36;19.27;;;9.93;;
75021;SDS011;63583;49.976;20.182;2023-06-14T00:18:02;18.70;;;8.80;;
75021;SDS011;63583;49.976;20.182;2023-06-14T00:20:29;19.33;;;9.43;;
75021;SDS011;63583;49.976;20.182;2023-06-14T00:22:58;19.17;;;9.40;;
75021;SDS011;63583;49.976;20.182;2023-06-14T00:25:24;22.20;;;9.45;;
75021;SDS011;63583;49.976;20.182;2023-06-14T00:27:50;20.02;;;9.18;;
75021;SDS011;63583;49.976;20.182;2023-06-14T00:30:17;19.75;;;9.23;;
75021;SDS011;63583;49.976;20.182;2023-06-14T00:32:43;19.35;;;9.52;;
75021;SDS011;63583;49.976;20.182;2023-06-14T00:35:09;18.50;;;9.10;;
75021;SDS011;63583;49.976;20.182;2023-06-14T00:37:35;16.58;;;8.85;;
75021;SDS011;63583;49.976;20.182;2023-06-14T00:40:01;17.40;;;9.32;;
75021;SDS011;63583;49.976;20.182;2023-06-14T00:42:29;18.15;;;9.18;;
75021;SDS011;63583;49.976;20.182;2023-06-14T00:44:55;17.17;;;9.50;;
75021;SDS011;63583;49.976;20.182;2023-06-14T00:47:21;17.27;;;8.80;;
75021;SDS011;63583;49.976;20.182;2023-06-14T00:49:47;18.15;;;8.93;;
75021;SDS011;63583;49.976;20.182;2023-06-14T00:52:15;19.35;;;8.73;;
75021;SDS011;63583;49.976;20.182;2023-06-14T00:54:41;14.32;;;8.70;;
75021;SDS011;63583;49.976;20.182;2023-06-14T00:57:08;16.33;;;8.02;;
75021;SDS011;63583;49.976;20.182;2023-06-14T00:59:35;17.65;;;8.35;;
75021;SDS011;63583;49.976;20.182;2023-06-14T01:04:35;17.95;;;8.93;;
75021;SDS011;63583;49.976;20.182;2023-06-14T01:07:02;18.25;;;9.75;;
75021;SDS011;63583;49.976;20.182;2023-06-14T01:12:16;22.25;;;10.52;;
75021;SDS011;63583;49.976;20.182;2023-06-14T01:14:48;22.50;;;9.13;;
75021;SDS011;63583;49.976;20.182;2023-06-14T01:17:15;20.35;;;8.75;;
75021;SDS011;63583;49.976;20.182;2023-06-14T01:19:42;21.42;;;10.43;;
75021;SDS011;63583;49.976;20.182;2023-06-14T01:22:09;19.45;;;9.27;;
75021;SDS011;63583;49.976;20.182;2023-06-14T01:24:36;20.60;;;10.25;;
75021;SDS011;63583;49.976;20.182;2023-06-14T01:27:01;19.20;;;9.30;;
75021;SDS011;63583;49.976;20.182;2023-06-14T01:29:28;17.50;;;9.23;;
75021;SDS011;63583;49.976;20.182;2023-06-14T01:31:58;22.40;;;8.85;;
75021;SDS011;63583;49.976;20.182;2023-06-14T01:34:25;17.73;;;9.02;;
75021;SDS011;63583;49.976;20.182;2023-06-14T01:36:51;18.48;;;9.00;;
75021;SDS011;63583;49.976;20.182;2023-06-14T01:39:20;21.13;;;10.00;;
75021;SDS011;63583;49.976;20.182;2023-06-14T01:41:47;19.45;;;9.25;;
75021;SDS011;63583;49.976;20.182;2023-06-14T01:44:14;23.58;;;10.23;;
75021;SDS011;63583;49.976;20.182;2023-06-14T01:46:41;23.05;;;9.80;;
75021;SDS011;63583;49.976;20.182;2023-06-14T01:49:08;23.58;;;10.05;;
75021;SDS011;63583;49.976;20.182;2023-06-14T01:51:34;22.45;;;9.90;;
75021;SDS011;63583;49.976;20.182;2023-06-14T01:54:01;20.58;;;8.85;;
75021;SDS011;63583;49.976;20.182;2023-06-14T01:56:26;20.30;;;9.13;;
75021;SDS011;63583;49.976;20.182;2023-06-14T01:58:52;20.45;;;10.00;;
75021;SDS011;63583;49.976;20.182;2023-06-14T02:01:19;19.23;;;8.75;;
75021;SDS011;63583;49.976;20.182;2023-06-14T02:03:47;20.40;;;9.43;;
75021;SDS011;63583;49.976;20.182;2023-06-14T02:06:13;21.48;;;9.88;;
75021;SDS011;63583;49.976;20.182;2023-06-14T02:08:41;21.60;;;9.60;;
75021;SDS011;63583;49.976;20.182;2023-06-14T02:11:07;23.15;;;10.27;;
75021;SDS011;63583;49.976;20.182;2023-06-14T02:13:33;27.17;;;9.85;;
75021;SDS011;63583;49.976;20.182;2023-06-14T02:16:00;26.27;;;11.00;;
75021;SDS011;63583;49.976;20.182;2023-06-14T02:18:26;21.42;;;10.45;;
75021;SDS011;63583;49.976;20.182;2023-06-14T02:20:52;25.90;;;10.52;;
75021;SDS011;63583;49.976;20.182;2023-06-14T02:23:18;23.48;;;9.75;;
75021;SDS011;63583;49.976;20.182;2023-06-14T02:25:43;23.20;;;9.88;;
75021;SDS011;63583;49.976;20.182;2023-06-14T02:28:11;26.25;;;10.05;;
75021;SDS011;63583;49.976;20.182;2023-06-14T02:30:37;25.00;;;10.38;;
75021;SDS011;63583;49.976;20.182;2023-06-14T02:33:03;23.27;;;9.23;;
75021;SDS011;63583;49.976;20.182;2023-06-14T02:35:29;19.50;;;9.25;;
75021;SDS011;63583;49.976;20.182;2023-06-14T02:37:55;22.58;;;8.98;;
75021;SDS011;63583;49.976;20.182;2023-06-14T02:40:21;21.63;;;9.32;;
75021;SDS011;63583;49.976;20.182;2023-06-14T02:42:47;25.20;;;9.90;;
75021;SDS011;63583;49.976;20.182;2023-06-14T02:45:13;24.42;;;9.85;;
75021;SDS011;63583;49.976;20.182;2023-06-14T02:47:39;25.63;;;10.23;;
75021;SDS011;63583;49.976;20.182;2023-06-14T02:50:05;23.90;;;9.68;;
75021;SDS011;63583;49.976;20.182;2023-06-14T02:52:31;21.00;;;10.07;;
75021;SDS011;63583;49.976;20.182;2023-06-14T02:54:58;28.67;;;9.57;;
75021;SDS011;63583;49.976;20.182;2023-06-14T02:57:24;25.35;;;10.20;;
75021;SDS011;63583;49.976;20.182;2023-06-14T02:59:49;29.10;;;10.00;;
75021;SDS011;63583;49.976;20.182;2023-06-14T03:02:15;23.58;;;9.90;;
75021;SDS011;63583;49.976;20.182;2023-06-14T03:04:41;27.23;;;10.77;;
75021;SDS011;63583;49.976;20.182;2023-06-14T03:07:10;24.80;;;9.40;;
75021;SDS011;63583;49.976;20.182;2023-06-14T03:09:36;25.35;;;10.15;;
75021;SDS011;63583;49.976;20.182;2023-06-14T03:12:05;25.80;;;10.40;;
75021;SDS011;63583;49.976;20.182;2023-06-14T03:14:37;29.30;;;11.15;;
75021;SDS011;63583;49.976;20.182;2023-06-14T03:17:03;27.08;;;11.13;;
75021;SDS011;63583;49.976;20.182;2023-06-14T03:19:30;29.45;;;10.80;;
75021;SDS011;63583;49.976;20.182;2023-06-14T03:21:55;27.58;;;11.80;;
75021;SDS011;63583;49.976;20.182;2023-06-14T03:24:24;24.88;;;11.18;;
75021;SDS011;63583;49.976;20.182;2023-06-14T03:26:53;27.98;;;11.18;;
75021;SDS011;63583;49.976;20.182;2023-06-14T03:29:19;26.27;;;11.35;;
75021;SDS011;63583;49.976;20.182;2023-06-14T03:32:00;25.05;;;10.63;;
75021;SDS011;63583;49.976;20.182;2023-06-14T03:34:28;27.55;;;11.23;;
75021;SDS011;63583;49.976;20.182;2023-06-14T03:36:54;28.60;;;10.85;;
75021;SDS011;63583;49.976;20.182;2023-06-14T03:39:19;26.48;;;10.48;;
75021;SDS011;63583;49.976;20.182;2023-06-14T03:41:45;23.75;;;9.70;;
75021;SDS011;63583;49.976;20.182;2023-06-14T03:44:11;22.90;;;9.55;;
75021;SDS011;63583;49.976;20.182;2023-06-14T03:46:37;25.83;;;11.20;;
75021;SDS011;63583;49.976;20.182;2023-06-14T03:49:02;24.00;;;9.30;;
75021;SDS011;63583;49.976;20.182;2023-06-14T03:51:28;27.33;;;10.50;;
75021;SDS011;63583;49.976;20.182;2023-06-14T03:53:54;22.83;;;10.07;;
75021;SDS011;63583;49.976;20.182;2023-06-14T03:56:21;24.63;;;10.30;;
75021;SDS011;63583;49.976;20.182;2023-06-14T03:58:46;27.67;;;10.23;;
75021;SDS011;63583;49.976;20.182;2023-06-14T04:01:12;24.40;;;10.55;;
75021;SDS011;63583;49.976;20.182;2023-06-14T04:03:39;20.20;;;9.07;;
75021;SDS011;63583;49.976;20.182;2023-06-14T04:06:05;23.20;;;10.32;;
75021;SDS011;63583;49.976;20.182;2023-06-14T04:08:32;25.80;;;10.48;;
75021;SDS011;63583;49.976;20.182;2023-06-14T04:10:58;26.40;;;11.15;;
75021;SDS011;63583;49.976;20.182;2023-06-14T04:13:24;25.08;;;11.30;;
75021;SDS011;63583;49.976;20.182;2023-06-14T04:15:49;23.55;;;9.68;;
75021;SDS011;63583;49.976;20.182;2023-06-14T04:18:15;27.23;;;11.32;;
75021;SDS011;63583;49.976;20.182;2023-06-14T04:20:41;25.88;;;10.95;;
75021;SDS011;63583;49.976;20.182;2023-06-14T04:23:16;25.27;;;10.25;;
75021;SDS011;63583;49.976;20.182;2023-06-14T04:25:47;23.55;;;10.60;;
75021;SDS011;63583;49.976;20.182;2023-06-14T04:28:14;27.75;;;10.90;;
75021;SDS011;63583;49.976;20.182;2023-06-14T04:30:43;25.40;;;10.73;;
75021;SDS011;63583;49.976;20.182;2023-06-14T04:33:10;23.15;;;10.43;;
75021;SDS011;63583;49.976;20.182;2023-06-14T04:35:36;24.80;;;10.98;;
75021;SDS011;63583;49.976;20.182;2023-06-14T04:38:05;29.60;;;12.90;;
75021;SDS011;63583;49.976;20.182;2023-06-14T04:40:35;31.58;;;12.85;;
75021;SDS011;63583;49.976;20.182;2023-06-14T04:43:10;30.38;;;11.95;;
75021;SDS011;63583;49.976;20.182;2023-06-14T04:45:37;29.92;;;12.27;;
75021;SDS011;63583;49.976;20.182;2023-06-14T04:48:05;32.38;;;10.82;;
75021;SDS011;63583;49.976;20.182;2023-06-14T04:50:32;29.63;;;12.13;;
75021;SDS011;63583;49.976;20.182;2023-06-14T04:52:58;27.35;;;11.80;;
75021;SDS011;63583;49.976;20.182;2023-06-14T04:55:25;29.40;;;11.15;;
75021;SDS011;63583;49.976;20.182;2023-06-14T04:57:51;30.95;;;12.07;;
75021;SDS011;63583;49.976;20.182;2023-06-14T05:00:19;28.92;;;11.70;;
75021;SDS011;63583;49.976;20.182;2023-06-14T05:02:48;31.95;;;11.23;;
75021;SDS011;63583;49.976;20.182;2023-06-14T05:05:14;25.67;;;10.57;;
75021;SDS011;63583;49.976;20.182;2023-06-14T05:07:40;24.33;;;10.73;;
75021;SDS011;63583;49.976;20.182;2023-06-14T05:10:06;28.33;;;11.10;;
75021;SDS011;63583;49.976;20.182;2023-06-14T05:12:32;26.65;;;10.95;;
75021;SDS011;63583;49.976;20.182;2023-06-14T05:14:59;26.55;;;9.80;;
75021;SDS011;63583;49.976;20.182;2023-06-14T05:17:25;25.30;;;9.70;;
75021;SDS011;63583;49.976;20.182;2023-06-14T05:19:53;25.17;;;10.25;;
75021;SDS011;63583;49.976;20.182;2023-06-14T05:22:20;28.20;;;10.48;;
75021;SDS011;63583;49.976;20.182;2023-06-14T05:24:47;26.38;;;11.32;;
75021;SDS011;63583;49.976;20.182;2023-06-14T05:27:13;28.77;;;11.65;;
75021;SDS011;63583;49.976;20.182;2023-06-14T05:29:39;26.17;;;11.50;;
75021;SDS011;63583;49.976;20.182;2023-06-14T05:32:05;27.30;;;10.52;;
75021;SDS011;63583;49.976;20.182;2023-06-14T05:34:31;26.05;;;11.20;;
75021;SDS011;63583;49.976;20.182;2023-06-14T05:36:57;30.90;;;11.38;;
75021;SDS011;63583;49.976;20.182;2023-06-14T05:39:22;26.25;;;10.85;;
75021;SDS011;63583;49.976;20.182;2023-06-14T05:41:49;29.52;;;11.93;;
75021;SDS011;63583;49.976;20.182;2023-06-14T05:44:15;25.60;;;10.45;;
75021;SDS011;63583;49.976;20.182;2023-06-14T05:46:40;23.92;;;10.90;;
75021;SDS011;63583;49.976;20.182;2023-06-14T05:49:06;24.63;;;11.02;;
75021;SDS011;63583;49.976;20.182;2023-06-14T05:51:32;27.65;;;12.15;;
75021;SDS011;63583;49.976;20.182;2023-06-14T05:53:57;24.98;;;11.60;;
75021;SDS011;63583;49.976;20.182;2023-06-14T05:56:23;29.08;;;12.65;;
75021;SDS011;63583;49.976;20.182;2023-06-14T05:58:49;26.40;;;11.43;;
75021;SDS011;63583;49.976;20.182;2023-06-14T06:01:15;28.63;;;11.82;;
75021;SDS011;63583;49.976;20.182;2023-06-14T06:03:41;26.67;;;11.50;;
75021;SDS011;63583;49.976;20.182;2023-06-14T06:08:36;24.63;;;11.63;;
75021;SDS011;63583;49.976;20.182;2023-06-14T06:11:02;27.35;;;11.80;;
75021;SDS011;63583;49.976;20.182;2023-06-14T06:13:28;29.48;;;11.27;;
75021;SDS011;63583;49.976;20.182;2023-06-14T06:15:53;24.95;;;11.55;;
75021;SDS011;63583;49.976;20.182;2023-06-14T06:18:19;34.50;;;11.95;;
75021;SDS011;63583;49.976;20.182;2023-06-14T06:20:44;29.42;;;12.18;;
75021;SDS011;63583;49.976;20.182;2023-06-14T06:23:12;46.38;;;14.02;;
75021;SDS011;63583;49.976;20.182;2023-06-14T06:25:38;29.00;;;11.10;;
75021;SDS011;63583;49.976;20.182;2023-06-14T06:28:03;19.30;;;9.35;;
75021;SDS011;63583;49.976;20.182;2023-06-14T06:30:29;25.30;;;9.52;;
75021;SDS011;63583;49.976;20.182;2023-06-14T06:32:55;18.17;;;7.65;;
75021;SDS011;63583;49.976;20.182;2023-06-14T06:35:20;28.85;;;10.02;;
75021;SDS011;63583;49.976;20.182;2023-06-14T06:37:46;28.45;;;11.90;;
75021;SDS011;63583;49.976;20.182;2023-06-14T06:40:12;26.52;;;10.30;;
75021;SDS011;63583;49.976;20.182;2023-06-14T06:42:38;28.15;;;11.15;;
75021;SDS011;63583;49.976;20.182;2023-06-14T06:45:04;26.30;;;10.90;;
75021;SDS011;63583;49.976;20.182;2023-06-14T06:47:30;20.70;;;9.32;;
75021;SDS011;63583;49.976;20.182;2023-06-14T06:49:56;18.08;;;8.55;;
75021;SDS011;63583;49.976;20.182;2023-06-14T06:52:22;13.10;;;6.60;;
75021;SDS011;63583;49.976;20.182;2023-06-14T06:54:47;12.13;;;6.32;;
75021;SDS011;63583;49.976;20.182;2023-06-14T06:57:14;11.55;;;6.70;;
75021;SDS011;63583;49.976;20.182;2023-06-14T06:59:40;14.15;;;6.55;;
75021;SDS011;63583;49.976;20.182;2023-06-14T07:02:05;12.25;;;6.65;;
75021;SDS011;63583;49.976;20.182;2023-06-14T07:04:31;12.05;;;6.25;;
75021;SDS011;63583;49.976;20.182;2023-06-14T07:06:57;11.10;;;6.35;;
75021;SDS011;63583;49.976;20.182;2023-06-14T07:09:22;8.23;;;4.97;;
75021;SDS011;63583;49.976;20.182;2023-06-14T07:11:49;8.88;;;5.43;;
75021;SDS011;63583;49.976;20.182;2023-06-14T07:14:15;10.48;;;5.72;;
75021;SDS011;63583;49.976;20.182;2023-06-14T07:16:41;9.48;;;5.32;;
75021;SDS011;63583;49.976;20.182;2023-06-14T07:19:08;8.48;;;5.13;;
75021;SDS011;63583;49.976;20.182;2023-06-14T07:21:34;7.32;;;5.15;;
75021;SDS011;63583;49.976;20.182;2023-06-14T07:24:00;7.43;;;4.53;;
75021;SDS011;63583;49.976;20.182;2023-06-14T07:26:26;7.15;;;4.55;;
75021;SDS011;63583;49.976;20.182;2023-06-14T07:28:51;9.73;;;5.88;;
75021;SDS011;63583;49.976;20.182;2023-06-14T07:31:18;7.68;;;5.15;;
75021;SDS011;63583;49.976;20.182;2023-06-14T07:33:44;13.38;;;7.13;;
75021;SDS011;63583;49.976;20.182;2023-06-14T07:36:10;8.50;;;5.65;;
75021;SDS011;63583;49.976;20.182;2023-06-14T07:38:36;6.22;;;4.35;;
75021;SDS011;63583;49.976;20.182;2023-06-14T07:41:02;7.03;;;4.28;;
75021;SDS011;63583;49.976;20.182;2023-06-14T07:43:28;9.63;;;4.63;;
75021;SDS011;63583;49.976;20.182;2023-06-14T07:45:54;8.13;;;5.15;;
75021;SDS011;63583;49.976;20.182;2023-06-14T07:48:20;7.30;;;5.45;;
75021;SDS011;63583;49.976;20.182;2023-06-14T07:50:46;8.32;;;5.65;;
75021;SDS011;63583;49.976;20.182;2023-06-14T07:53:11;10.77;;;6.07;;
75021;SDS011;63583;49.976;20.182;2023-06-14T07:55:37;9.63;;;6.35;;
75021;SDS011;63583;49.976;20.182;2023-06-14T07:58:03;11.20;;;7.07;;
75021;SDS011;63583;49.976;20.182;2023-06-14T08:00:29;10.35;;;6.80;;
75021;SDS011;63583;49.976;20.182;2023-06-14T08:02:55;9.73;;;5.97;;
75021;SDS011;63583;49.976;20.182;2023-06-14T08:05:28;9.63;;;6.38;;
75021;SDS011;63583;49.976;20.182;2023-06-14T08:07:54;12.38;;;7.35;;
75021;SDS011;63583;49.976;20.182;2023-06-14T08:10:20;10.32;;;7.10;;
75021;SDS011;63583;49.976;20.182;2023-06-14T08:12:46;11.10;;;6.30;;
75021;SDS011;63583;49.976;20.182;2023-06-14T08:15:13;10.60;;;6.32;;
75021;SDS011;63583;49.976;20.182;2023-06-14T08:17:39;11.75;;;6.88;;
75021;SDS011;63583;49.976;20.182;2023-06-14T08:20:06;10.50;;;7.07;;
75021;SDS011;63583;49.976;20.182;2023-06-14T08:22:32;13.00;;;8.38;;
75021;SDS011;63583;49.976;20.182;2023-06-14T08:25:01;14.25;;;8.45;;
75021;SDS011;63583;49.976;20.182;2023-06-14T08:27:27;13.77;;;8.38;;
75021;SDS011;63583;49.976;20.182;2023-06-14T08:29:53;18.02;;;10.13;;
75021;SDS011;63583;49.976;20.182;2023-06-14T08:32:18;16.67;;;10.63;;
75021;SDS011;63583;49.976;20.182;2023-06-14T08:34:44;15.82;;;9.40;;
75021;SDS011;63583;49.976;20.182;2023-06-14T08:37:10;15.65;;;9.77;;
75021;SDS011;63583;49.976;20.182;2023-06-14T08:39:36;18.95;;;11.07;;
75021;SDS011;63583;49.976;20.182;2023-06-14T08:42:02;16.88;;;10.45;;
75021;SDS011;63583;49.976;20.182;2023-06-14T08:44:29;18.05;;;10.20;;
75021;SDS011;63583;49.976;20.182;2023-06-14T08:46:56;22.05;;;11.20;;
75021;SDS011;63583;49.976;20.182;2023-06-14T08:49:22;16.40;;;9.70;;
75021;SDS011;63583;49.976;20.182;2023-06-14T08:51:51;15.32;;;9.18;;
75021;SDS011;63583;49.976;20.182;2023-06-14T08:54:23;14.70;;;8.60;;
75021;SDS011;63583;49.976;20.182;2023-06-14T08:56:52;12.70;;;7.95;;
75021;SDS011;63583;49.976;20.182;2023-06-14T08:59:24;13.60;;;8.10;;
75021;SDS011;63583;49.976;20.182;2023-06-14T09:01:51;11.27;;;7.35;;
75021;SDS011;63583;49.976;20.182;2023-06-14T09:04:18;14.45;;;8.57;;
75021;SDS011;63583;49.976;20.182;2023-06-14T09:06:45;14.70;;;8.18;;
75021;SDS011;63583;49.976;20.182;2023-06-14T09:09:11;12.68;;;8.00;;
75021;SDS011;63583;49.976;20.182;2023-06-14T09:11:37;11.50;;;7.78;;
75021;SDS011;63583;49.976;20.182;2023-06-14T09:14:03;12.95;;;8.30;;
75021;SDS011;63583;49.976;20.182;2023-06-14T09:16:31;13.80;;;8.25;;
75021;SDS011;63583;49.976;20.182;2023-06-14T09:18:58;11.20;;;7.80;;
75021;SDS011;63583;49.976;20.182;2023-06-14T09:21:23;14.70;;;8.68;;
75021;SDS011;63583;49.976;20.182;2023-06-14T09:23:49;14.73;;;8.98;;
75021;SDS011;63583;49.976;20.182;2023-06-14T09:26:16;12.77;;;8.07;;
75021;SDS011;63583;49.976;20.182;2023-06-14T09:28:45;12.93;;;7.47;;
75021;SDS011;63583;49.976;20.182;2023-06-14T09:31:12;11.82;;;7.82;;
75021;SDS011;63583;49.976;20.182;2023-06-14T09:33:43;11.60;;;7.78;;
75021;SDS011;63583;49.976;20.182;2023-06-14T09:36:17;13.50;;;7.32;;
75021;SDS011;63583;49.976;20.182;2023-06-14T09:38:56;12.55;;;7.68;;
75021;SDS011;63583;49.976;20.182;2023-06-14T09:44:01;13.40;;;8.38;;
75021;SDS011;63583;49.976;20.182;2023-06-14T09:46:28;10.95;;;7.57;;
75021;SDS011;63583;49.976;20.182;2023-06-14T09:48:58;13.30;;;7.72;;
75021;SDS011;63583;49.976;20.182;2023-06-14T09:51:24;14.13;;;7.30;;
75021;SDS011;63583;49.976;20.182;2023-06-14T09:53:51;11.10;;;6.50;;
75021;SDS011;63583;49.976;20.182;2023-06-14T09:56:22;8.32;;;5.90;;
75021;SDS011;63583;49.976;20.182;2023-06-14T09:59:00;8.75;;;6.22;;
75021;SDS011;63583;49.976;20.182;2023-06-14T10:01:31;10.63;;;6.80;;
75021;SDS011;63583;49.976;20.182;2023-06-14T10:04:02;15.95;;;8.20;;
75021;SDS011;63583;49.976;20.182;2023-06-14T10:06:29;11.48;;;7.25;;
75021;SDS011;63583;49.976;20.182;2023-06-14T10:08:56;11.25;;;7.03;;
75021;SDS011;63583;49.976;20.182;2023-06-14T10:11:25;11.55;;;6.97;;
75021;SDS011;63583;49.976;20.182;2023-06-14T10:13:52;11.85;;;7.40;;
75021;SDS011;63583;49.976;20.182;2023-06-14T10:16:23;9.50;;;6.28;;
75021;SDS011;63583;49.976;20.182;2023-06-14T10:19:00;12.00;;;7.03;;
75021;SDS011;63583;49.976;20.182;2023-06-14T10:21:43;11.38;;;7.50;;
75021;SDS011;63583;49.976;20.182;2023-06-14T10:24:18;13.48;;;7.68;;
75021;SDS011;63583;49.976;20.182;2023-06-14T10:26:58;12.80;;;7.95;;
75021;SDS011;63583;49.976;20.182;2023-06-14T10:29:28;12.00;;;7.75;;
75021;SDS011;63583;49.976;20.182;2023-06-14T10:31:57;14.93;;;8.20;;
75021;SDS011;63583;49.976;20.182;2023-06-14T10:39:28;13.90;;;7.95;;
75021;SDS011;63583;49.976;20.182;2023-06-14T10:41:54;13.57;;;7.40;;
75021;SDS011;63583;49.976;20.182;2023-06-14T10:46:47;13.45;;;7.03;;
75021;SDS011;63583;49.976;20.182;2023-06-14T10:49:18;14.02;;;8.13;;
75021;SDS011;63583;49.976;20.182;2023-06-14T10:51:45;14.32;;;7.90;;
75021;SDS011;63583;49.976;20.182;2023-06-14T10:54:22;13.27;;;7.60;;
75021;SDS011;63583;49.976;20.182;2023-06-14T10:56:49;15.65;;;8.32;;
75021;SDS011;63583;49.976;20.182;2023-06-14T10:59:17;16.48;;;8.80;;
75021;SDS011;63583;49.976;20.182;2023-06-14T11:04:12;18.20;;;9.65;;
75021;SDS011;63583;49.976;20.182;2023-06-14T11:06:45;13.45;;;8.40;;
75021;SDS011;63583;49.976;20.182;2023-06-14T11:11:59;13.88;;;9.13;;
75021;SDS011;63583;49.976;20.182;2023-06-14T11:14:29;13.35;;;8.85;;
75021;SDS011;63583;49.976;20.182;2023-06-14T11:16:56;17.73;;;10.00;;
75021;SDS011;63583;49.976;20.182;2023-06-14T11:19:21;16.13;;;10.30;;
75021;SDS011;63583;49.976;20.182;2023-06-14T11:21:48;16.88;;;9.90;;
75021;SDS011;63583;49.976;20.182;2023-06-14T11:24:14;18.52;;;9.63;;
75021;SDS011;63583;49.976;20.182;2023-06-14T11:26:40;11.10;;;6.72;;
75021;SDS011;63583;49.976;20.182;2023-06-14T11:29:06;10.82;;;7.55;;
75021;SDS011;63583;49.976;20.182;2023-06-14T11:31:32;11.85;;;7.10;;
75021;SDS011;63583;49.976;20.182;2023-06-14T11:33:58;13.43;;;8.35;;
75021;SDS011;63583;49.976;20.182;2023-06-14T11:36:28;14.32;;;8.52;;
75021;SDS011;63583;49.976;20.182;2023-06-14T11:39:02;14.00;;;9.13;;
75021;SDS011;63583;49.976;20.182;2023-06-14T11:41:32;14.13;;;8.52;;
75021;SDS011;63583;49.976;20.182;2023-06-14T11:44:05;15.60;;;9.48;;
75021;SDS011;63583;49.976;20.182;2023-06-14T11:46:32;13.27;;;8.43;;
75021;SDS011;63583;49.976;20.182;2023-06-14T11:48:58;13.98;;;8.13;;
75021;SDS011;63583;49.976;20.182;2023-06-14T11:51:24;14.35;;;8.07;;
75021;SDS011;63583;49.976;20.182;2023-06-14T11:53:50;13.82;;;8.65;;
75021;SDS011;63583;49.976;20.182;2023-06-14T11:56:16;14.15;;;8.65;;
75021;SDS011;63583;49.976;20.182;2023-06-14T11:58:45;13.40;;;8.38;;
75021;SDS011;63583;49.976;20.182;2023-06-14T12:01:14;14.57;;;8.38;;
75021;SDS011;63583;49.976;20.182;2023-06-14T12:03:49;12.15;;;7.78;;
75021;SDS011;63583;49.976;20.182;2023-06-14T12:06:25;12.20;;;8.27;;
75021;SDS011;63583;49.976;20.182;2023-06-14T12:08:55;11.07;;;7.55;;
75021;SDS011;63583;49.976;20.182;2023-06-14T12:11:21;11.15;;;7.05;;
75021;SDS011;63583;49.976;20.182;2023-06-14T12:13:47;12.43;;;7.60;;
75021;SDS011;63583;49.976;20.182;2023-06-14T12:16:14;12.52;;;7.53;;
75021;SDS011;63583;49.976;20.182;2023-06-14T12:18:40;11.05;;;6.72;;
75021;SDS011;63583;49.976;20.182;2023-06-14T12:21:08;10.07;;;6.97;;
75021;SDS011;63583;49.976;20.182;2023-06-14T12:23:38;11.52;;;6.93;;
75021;SDS011;63583;49.976;20.182;2023-06-14T12:26:14;10.15;;;7.10;;
75021;SDS011;63583;49.976;20.182;2023-06-14T12:28:42;9.07;;;6.43;;
75021;SDS011;63583;49.976;20.182;2023-06-14T12:31:11;10.30;;;6.93;;
75021;SDS011;63583;49.976;20.182;2023-06-14T12:33:38;10.57;;;7.28;;
75021;SDS011;63583;49.976;20.182;2023-06-14T12:36:05;8.85;;;6.38;;
75021;SDS011;63583;49.976;20.182;2023-06-14T12:38:32;8.82;;;6.40;;
75021;SDS011;63583;49.976;20.182;2023-06-14T12:40:58;8.50;;;6.43;;
75021;SDS011;63583;49.976;20.182;2023-06-14T12:43:24;12.38;;;6.45;;
75021;SDS011;63583;49.976;20.182;2023-06-14T12:45:50;9.35;;;6.07;;
75021;SDS011;63583;49.976;20.182;2023-06-14T12:48:15;10.50;;;6.85;;
75021;SDS011;63583;49.976;20.182;2023-06-14T12:50:41;10.63;;;7.63;;
75021;SDS011;63583;49.976;20.182;2023-06-14T12:53:07;7.80;;;5.45;;
75021;SDS011;63583;49.976;20.182;2023-06-14T12:55:33;9.13;;;6.00;;
75021;SDS011;63583;49.976;20.182;2023-06-14T12:57:59;7.95;;;6.18;;
75021;SDS011;63583;49.976;20.182;2023-06-14T13:00:24;8.75;;;6.22;;
75021;SDS011;63583;49.976;20.182;2023-06-14T13:02:56;9.20;;;7.05;;
75021;SDS011;63583;49.976;20.182;2023-06-14T13:05:22;11.52;;;7.18;;
75021;SDS011;63583;49.976;20.182;2023-06-14T13:07:48;9.13;;;6.43;;
75021;SDS011;63583;49.976;20.182;2023-06-14T13:10:13;9.70;;;6.63;;
75021;SDS011;63583;49.976;20.182;2023-06-14T13:12:39;9.43;;;6.40;;
75021;SDS011;63583;49.976;20.182;2023-06-14T13:15:05;8.20;;;6.50;;
75021;SDS011;63583;49.976;20.182;2023-06-14T13:17:32;7.70;;;5.45;;
75021;SDS011;63583;49.976;20.182;2023-06-14T13:20:04;9.55;;;5.32;;
75021;SDS011;63583;49.976;20.182;2023-06-14T13:22:31;10.05;;;5.88;;
75021;SDS011;63583;49.976;20.182;2023-06-14T13:24:56;8.55;;;6.25;;
75021;SDS011;63583;49.976;20.182;2023-06-14T13:27:22;9.40;;;5.80;;
75021;SDS011;63583;49.976;20.182;2023-06-14T13:29:49;7.80;;;5.43;;
75021;SDS011;63583;49.976;20.182;2023-06-14T13:32:15;7.38;;;5.28;;
75021;SDS011;63583;49.976;20.182;2023-06-14T13:34:41;7.38;;;4.85;;
75021;SDS011;63583;49.976;20.182;2023-06-14T13:37:07;8.43;;;5.40;;
75021;SDS011;63583;49.976;20.182;2023-06-14T13:39:32;8.10;;;5.72;;
75021;SDS011;63583;49.976;20.182;2023-06-14T13:41:58;8.25;;;5.45;;
75021;SDS011;63583;49.976;20.182;2023-06-14T13:44:23;9.48;;;5.18;;
75021;SDS011;63583;49.976;20.182;2023-06-14T13:46:50;8.75;;;5.57;;
75021;SDS011;63583;49.976;20.182;2023-06-14T13:49:16;8.30;;;4.97;;
75021;SDS011;63583;49.976;20.182;2023-06-14T13:51:42;7.78;;;5.40;;
75021;SDS011;63583;49.976;20.182;2023-06-14T13:54:08;8.13;;;5.25;;
75021;SDS011;63583;49.976;20.182;2023-06-14T13:56:34;8.05;;;4.70;;
75021;SDS011;63583;49.976;20.182;2023-06-14T13:58:59;6.18;;;4.00;;
75021;SDS011;63583;49.976;20.182;2023-06-14T14:01:26;10.52;;;4.90;;
75021;SDS011;63583;49.976;20.182;2023-06-14T14:03:53;5.55;;;3.88;;
75021;SDS011;63583;49.976;20.182;2023-06-14T14:06:19;6.22;;;4.32;;
75021;SDS011;63583;49.976;20.182;2023-06-14T14:08:45;6.10;;;4.05;;
75021;SDS011;63583;49.976;20.182;2023-06-14T14:11:11;5.38;;;4.03;;
75021;SDS011;63583;49.976;20.182;2023-06-14T14:13:37;7.07;;;4.15;;
75021;SDS011;63583;49.976;20.182;2023-06-14T14:16:04;5.97;;;4.22;;
75021;SDS011;63583;49.976;20.182;2023-06-14T14:18:31;5.80;;;4.22;;
75021;SDS011;63583;49.976;20.182;2023-06-14T14:20:58;6.18;;;3.80;;
75021;SDS011;63583;49.976;20.182;2023-06-14T14:23:24;3.65;;;2.50;;
75021;SDS011;63583;49.976;20.182;2023-06-14T14:25:50;4.82;;;2.42;;
75021;SDS011;63583;49.976;20.182;2023-06-14T14:28:15;4.75;;;2.60;;
75021;SDS011;63583;49.976;20.182;2023-06-14T14:30:41;4.45;;;2.70;;
75021;SDS011;63583;49.976;20.182;2023-06-14T14:33:07;5.40;;;3.35;;
75021;SDS011;63583;49.976;20.182;2023-06-14T14:35:33;5.13;;;3.50;;
75021;SDS011;63583;49.976;20.182;2023-06-14T14:37:59;4.97;;;3.00;;
75021;SDS011;63583;49.976;20.182;2023-06-14T14:40:24;5.20;;;3.20;;
75021;SDS011;63583;49.976;20.182;2023-06-14T14:42:50;4.60;;;3.20;;